Main page
Satellite images 15-day forecastsClimateMarine weather Cyclones Lightning AirportsFAQ Newsletter About
Weather : Europe Africa North America South America Asia Australia-Oceania Others
Languages Contact

Pontianak, Indonesia

latitude: 00-09S, longitude: 109-24E, elevation: 3 m


METAR: WIOO 210500Z 32003KT 9999 BKN012 32/24 Q1011 NSW
TAF: missing

Time: 12:17 (05:17 UTC)

Current weather observation

The report was made 17 minutes ago, at 05:00 UTC  
Wind 03 kt from the Northwest
Temperature 32°C
Humidity 63%
Pressure 1011 hPa
Visibility 10 km or more
Broken clouds at a height of 1200 ft

Change units
The information on this site is subject to a disclaimer
Weather : Europe Africa North America South America Asia Australia-Oceania Others
Satellite images 15-day forecastsClimateMarine weather Cyclones Lightning AirportsFAQ Languages Contact Newsletter About